sensor_id;sensor_type;location;lat;lon;timestamp;P1;durP1;ratioP1;P2;durP2;ratioP2
20713;SDS011;10518;50.742;4.226;2023-06-22T00:00:48;3.08;;;1.35;;
20713;SDS011;10518;50.742;4.226;2023-06-22T00:03:14;3.65;;;1.50;;
20713;SDS011;10518;50.742;4.226;2023-06-22T00:05:40;3.72;;;1.45;;
20713;SDS011;10518;50.742;4.226;2023-06-22T00:08:06;1.55;;;0.95;;
20713;SDS011;10518;50.742;4.226;2023-06-22T00:10:31;1.33;;;1.23;;
20713;SDS011;10518;50.742;4.226;2023-06-22T00:12:57;3.95;;;2.15;;
20713;SDS011;10518;50.742;4.226;2023-06-22T00:15:23;3.00;;;1.52;;
20713;SDS011;10518;50.742;4.226;2023-06-22T00:17:49;2.72;;;1.65;;
20713;SDS011;10518;50.742;4.226;2023-06-22T00:20:15;4.45;;;1.90;;
20713;SDS011;10518;50.742;4.226;2023-06-22T00:22:43;3.25;;;1.45;;
20713;SDS011;10518;50.742;4.226;2023-06-22T00:25:12;3.45;;;1.70;;
20713;SDS011;10518;50.742;4.226;2023-06-22T00:27:38;6.82;;;1.85;;
20713;SDS011;10518;50.742;4.226;2023-06-22T00:30:04;2.92;;;1.42;;
20713;SDS011;10518;50.742;4.226;2023-06-22T00:32:30;3.60;;;2.00;;
20713;SDS011;10518;50.742;4.226;2023-06-22T00:34:55;3.92;;;1.83;;
20713;SDS011;10518;50.742;4.226;2023-06-22T00:37:21;1.90;;;1.73;;
20713;SDS011;10518;50.742;4.226;2023-06-22T00:39:50;1.67;;;1.55;;
20713;SDS011;10518;50.742;4.226;2023-06-22T00:42:16;2.90;;;1.60;;
20713;SDS011;10518;50.742;4.226;2023-06-22T00:44:42;5.57;;;1.88;;
20713;SDS011;10518;50.742;4.226;2023-06-22T00:47:08;3.05;;;1.80;;
20713;SDS011;10518;50.742;4.226;2023-06-22T00:49:34;2.08;;;1.38;;
20713;SDS011;10518;50.742;4.226;2023-06-22T00:52:00;2.05;;;1.33;;
20713;SDS011;10518;50.742;4.226;2023-06-22T00:54:26;2.38;;;1.65;;
20713;SDS011;10518;50.742;4.226;2023-06-22T00:56:53;4.28;;;1.73;;
20713;SDS011;10518;50.742;4.226;2023-06-22T00:59:21;2.25;;;1.40;;
20713;SDS011;10518;50.742;4.226;2023-06-22T01:01:48;2.00;;;1.70;;
20713;SDS011;10518;50.742;4.226;2023-06-22T01:04:13;2.30;;;1.27;;
20713;SDS011;10518;50.742;4.226;2023-06-22T01:06:45;2.22;;;1.20;;
20713;SDS011;10518;50.742;4.226;2023-06-22T01:09:20;2.15;;;1.35;;
20713;SDS011;10518;50.742;4.226;2023-06-22T01:11:57;2.58;;;1.70;;
20713;SDS011;10518;50.742;4.226;2023-06-22T01:14:35;3.67;;;1.38;;
20713;SDS011;10518;50.742;4.226;2023-06-22T01:17:07;1.20;;;0.88;;
20713;SDS011;10518;50.742;4.226;2023-06-22T01:22:09;2.30;;;1.02;;
20713;SDS011;10518;50.742;4.226;2023-06-22T01:30:10;1.33;;;1.05;;
20713;SDS011;10518;50.742;4.226;2023-06-22T01:32:39;1.98;;;1.30;;
20713;SDS011;10518;50.742;4.226;2023-06-22T01:35:06;1.42;;;1.08;;
20713;SDS011;10518;50.742;4.226;2023-06-22T01:37:34;2.05;;;1.52;;
20713;SDS011;10518;50.742;4.226;2023-06-22T01:40:01;1.85;;;1.20;;
20713;SDS011;10518;50.742;4.226;2023-06-22T01:42:30;1.70;;;1.38;;
20713;SDS011;10518;50.742;4.226;2023-06-22T01:44:56;2.10;;;1.25;;
20713;SDS011;10518;50.742;4.226;2023-06-22T01:47:23;1.90;;;1.17;;
20713;SDS011;10518;50.742;4.226;2023-06-22T01:49:50;2.00;;;1.42;;
20713;SDS011;10518;50.742;4.226;2023-06-22T01:52:19;2.78;;;1.63;;
20713;SDS011;10518;50.742;4.226;2023-06-22T01:54:46;1.38;;;1.13;;
20713;SDS011;10518;50.742;4.226;2023-06-22T01:57:12;1.60;;;1.00;;
20713;SDS011;10518;50.742;4.226;2023-06-22T01:59:39;2.15;;;1.45;;
20713;SDS011;10518;50.742;4.226;2023-06-22T02:02:19;3.30;;;2.15;;
20713;SDS011;10518;50.742;4.226;2023-06-22T02:04:55;4.25;;;1.38;;
20713;SDS011;10518;50.742;4.226;2023-06-22T02:07:23;1.40;;;1.30;;
20713;SDS011;10518;50.742;4.226;2023-06-22T02:09:54;1.52;;;1.20;;
20713;SDS011;10518;50.742;4.226;2023-06-22T02:12:22;3.47;;;1.38;;
20713;SDS011;10518;50.742;4.226;2023-06-22T02:14:49;3.03;;;1.38;;
20713;SDS011;10518;50.742;4.226;2023-06-22T02:17:17;1.60;;;1.50;;
20713;SDS011;10518;50.742;4.226;2023-06-22T02:19:43;1.77;;;1.58;;
20713;SDS011;10518;50.742;4.226;2023-06-22T02:22:09;3.53;;;1.92;;
20713;SDS011;10518;50.742;4.226;2023-06-22T02:24:35;2.67;;;2.10;;
20713;SDS011;10518;50.742;4.226;2023-06-22T02:27:01;4.95;;;2.10;;
20713;SDS011;10518;50.742;4.226;2023-06-22T02:29:27;4.53;;;1.67;;
20713;SDS011;10518;50.742;4.226;2023-06-22T02:31:53;1.98;;;1.52;;
20713;SDS011;10518;50.742;4.226;2023-06-22T02:34:19;3.05;;;1.50;;
20713;SDS011;10518;50.742;4.226;2023-06-22T02:36:46;2.33;;;1.20;;
20713;SDS011;10518;50.742;4.226;2023-06-22T02:39:15;1.42;;;1.33;;
20713;SDS011;10518;50.742;4.226;2023-06-22T02:41:52;2.58;;;1.40;;
20713;SDS011;10518;50.742;4.226;2023-06-22T02:44:18;1.30;;;1.15;;
20713;SDS011;10518;50.742;4.226;2023-06-22T02:46:45;4.05;;;1.30;;
20713;SDS011;10518;50.742;4.226;2023-06-22T02:49:12;1.85;;;1.13;;
20713;SDS011;10518;50.742;4.226;2023-06-22T02:51:38;1.63;;;1.10;;
20713;SDS011;10518;50.742;4.226;2023-06-22T02:54:05;2.10;;;1.50;;
20713;SDS011;10518;50.742;4.226;2023-06-22T02:56:31;2.35;;;1.25;;
20713;SDS011;10518;50.742;4.226;2023-06-22T02:58:56;2.95;;;1.25;;
20713;SDS011;10518;50.742;4.226;2023-06-22T03:01:28;1.30;;;1.08;;
20713;SDS011;10518;50.742;4.226;2023-06-22T03:03:55;1.45;;;0.93;;
20713;SDS011;10518;50.742;4.226;2023-06-22T03:06:23;1.40;;;1.30;;
20713;SDS011;10518;50.742;4.226;2023-06-22T03:08:54;3.17;;;1.55;;
20713;SDS011;10518;50.742;4.226;2023-06-22T03:11:28;2.47;;;1.58;;
20713;SDS011;10518;50.742;4.226;2023-06-22T03:13:54;5.15;;;1.88;;
20713;SDS011;10518;50.742;4.226;2023-06-22T03:16:20;2.22;;;1.83;;
20713;SDS011;10518;50.742;4.226;2023-06-22T03:18:45;1.50;;;1.33;;
20713;SDS011;10518;50.742;4.226;2023-06-22T03:21:11;2.17;;;1.15;;
20713;SDS011;10518;50.742;4.226;2023-06-22T03:23:36;2.85;;;1.67;;
20713;SDS011;10518;50.742;4.226;2023-06-22T03:26:02;2.55;;;1.75;;
20713;SDS011;10518;50.742;4.226;2023-06-22T03:28:29;3.55;;;1.58;;
20713;SDS011;10518;50.742;4.226;2023-06-22T03:30:57;1.95;;;1.45;;
20713;SDS011;10518;50.742;4.226;2023-06-22T03:33:23;6.65;;;1.92;;
20713;SDS011;10518;50.742;4.226;2023-06-22T03:35:48;2.72;;;1.75;;
20713;SDS011;10518;50.742;4.226;2023-06-22T03:38:15;7.10;;;2.28;;
20713;SDS011;10518;50.742;4.226;2023-06-22T03:40:41;2.10;;;1.42;;
20713;SDS011;10518;50.742;4.226;2023-06-22T03:43:06;2.55;;;1.38;;
20713;SDS011;10518;50.742;4.226;2023-06-22T03:45:32;2.53;;;1.40;;
20713;SDS011;10518;50.742;4.226;2023-06-22T03:47:58;2.63;;;1.50;;
20713;SDS011;10518;50.742;4.226;2023-06-22T03:50:23;2.17;;;1.90;;
20713;SDS011;10518;50.742;4.226;2023-06-22T03:52:49;5.10;;;2.17;;
20713;SDS011;10518;50.742;4.226;2023-06-22T03:55:16;2.83;;;1.58;;
20713;SDS011;10518;50.742;4.226;2023-06-22T03:57:42;3.20;;;1.88;;
20713;SDS011;10518;50.742;4.226;2023-06-22T04:00:07;5.88;;;2.08;;
20713;SDS011;10518;50.742;4.226;2023-06-22T04:02:34;5.05;;;2.20;;
20713;SDS011;10518;50.742;4.226;2023-06-22T04:05:00;6.45;;;2.50;;
20713;SDS011;10518;50.742;4.226;2023-06-22T04:07:26;2.88;;;2.10;;
20713;SDS011;10518;50.742;4.226;2023-06-22T04:09:51;4.82;;;2.25;;
20713;SDS011;10518;50.742;4.226;2023-06-22T04:12:17;6.93;;;2.72;;
20713;SDS011;10518;50.742;4.226;2023-06-22T04:14:42;3.17;;;2.58;;
20713;SDS011;10518;50.742;4.226;2023-06-22T04:17:08;3.58;;;2.13;;
20713;SDS011;10518;50.742;4.226;2023-06-22T04:19:33;3.53;;;2.28;;
20713;SDS011;10518;50.742;4.226;2023-06-22T04:21:59;3.88;;;2.85;;
20713;SDS011;10518;50.742;4.226;2023-06-22T04:24:25;5.13;;;2.38;;
20713;SDS011;10518;50.742;4.226;2023-06-22T04:26:50;3.88;;;2.00;;
20713;SDS011;10518;50.742;4.226;2023-06-22T04:29:19;4.78;;;2.70;;
20713;SDS011;10518;50.742;4.226;2023-06-22T04:31:45;2.08;;;1.67;;
20713;SDS011;10518;50.742;4.226;2023-06-22T04:34:15;5.53;;;2.78;;
20713;SDS011;10518;50.742;4.226;2023-06-22T04:36:41;4.43;;;2.10;;
20713;SDS011;10518;50.742;4.226;2023-06-22T04:39:08;3.95;;;2.63;;
20713;SDS011;10518;50.742;4.226;2023-06-22T04:41:38;5.15;;;2.47;;
20713;SDS011;10518;50.742;4.226;2023-06-22T04:44:14;4.78;;;2.28;;
20713;SDS011;10518;50.742;4.226;2023-06-22T04:46:49;7.15;;;2.40;;
20713;SDS011;10518;50.742;4.226;2023-06-22T04:49:18;3.22;;;1.83;;
20713;SDS011;10518;50.742;4.226;2023-06-22T04:51:45;2.97;;;1.85;;
20713;SDS011;10518;50.742;4.226;2023-06-22T04:54:11;2.88;;;1.40;;
20713;SDS011;10518;50.742;4.226;2023-06-22T04:56:36;1.83;;;1.25;;
20713;SDS011;10518;50.742;4.226;2023-06-22T04:59:02;2.15;;;1.17;;
20713;SDS011;10518;50.742;4.226;2023-06-22T05:01:29;1.45;;;1.08;;
20713;SDS011;10518;50.742;4.226;2023-06-22T05:03:57;2.35;;;1.45;;
20713;SDS011;10518;50.742;4.226;2023-06-22T05:06:26;2.15;;;1.42;;
20713;SDS011;10518;50.742;4.226;2023-06-22T05:08:53;1.58;;;0.98;;
20713;SDS011;10518;50.742;4.226;2023-06-22T05:11:23;4.75;;;1.40;;
20713;SDS011;10518;50.742;4.226;2023-06-22T05:13:50;3.90;;;2.15;;
20713;SDS011;10518;50.742;4.226;2023-06-22T05:16:16;5.53;;;1.95;;
20713;SDS011;10518;50.742;4.226;2023-06-22T05:18:41;2.92;;;1.83;;
20713;SDS011;10518;50.742;4.226;2023-06-22T05:21:08;5.07;;;2.20;;
20713;SDS011;10518;50.742;4.226;2023-06-22T05:23:34;3.15;;;2.20;;
20713;SDS011;10518;50.742;4.226;2023-06-22T05:25:59;2.58;;;2.08;;
20713;SDS011;10518;50.742;4.226;2023-06-22T05:28:25;7.75;;;1.92;;
20713;SDS011;10518;50.742;4.226;2023-06-22T05:30:51;3.30;;;2.20;;
20713;SDS011;10518;50.742;4.226;2023-06-22T05:33:16;6.93;;;2.40;;
20713;SDS011;10518;50.742;4.226;2023-06-22T05:35:42;3.92;;;2.47;;
20713;SDS011;10518;50.742;4.226;2023-06-22T05:38:08;3.97;;;1.92;;
20713;SDS011;10518;50.742;4.226;2023-06-22T05:40:33;5.53;;;2.20;;
20713;SDS011;10518;50.742;4.226;2023-06-22T05:42:59;3.42;;;1.90;;
20713;SDS011;10518;50.742;4.226;2023-06-22T05:45:26;3.05;;;1.83;;
20713;SDS011;10518;50.742;4.226;2023-06-22T05:47:52;2.60;;;1.95;;
20713;SDS011;10518;50.742;4.226;2023-06-22T05:50:17;3.08;;;2.03;;
20713;SDS011;10518;50.742;4.226;2023-06-22T05:52:43;2.45;;;1.80;;
20713;SDS011;10518;50.742;4.226;2023-06-22T05:55:09;4.47;;;1.80;;
20713;SDS011;10518;50.742;4.226;2023-06-22T05:57:34;5.28;;;2.03;;
20713;SDS011;10518;50.742;4.226;2023-06-22T06:00:00;3.38;;;1.70;;
20713;SDS011;10518;50.742;4.226;2023-06-22T06:02:26;2.55;;;2.10;;
20713;SDS011;10518;50.742;4.226;2023-06-22T06:04:51;3.33;;;1.88;;
20713;SDS011;10518;50.742;4.226;2023-06-22T06:07:17;4.47;;;1.42;;
20713;SDS011;10518;50.742;4.226;2023-06-22T06:09:43;3.25;;;1.73;;
20713;SDS011;10518;50.742;4.226;2023-06-22T06:12:09;2.22;;;1.90;;
20713;SDS011;10518;50.742;4.226;2023-06-22T06:14:35;3.22;;;2.50;;
20713;SDS011;10518;50.742;4.226;2023-06-22T06:17:00;3.03;;;2.15;;
20713;SDS011;10518;50.742;4.226;2023-06-22T06:19:26;3.33;;;2.05;;
20713;SDS011;10518;50.742;4.226;2023-06-22T06:21:51;4.43;;;2.20;;
20713;SDS011;10518;50.742;4.226;2023-06-22T06:24:17;5.53;;;1.70;;
20713;SDS011;10518;50.742;4.226;2023-06-22T06:26:43;2.95;;;1.77;;
20713;SDS011;10518;50.742;4.226;2023-06-22T06:29:08;3.00;;;1.83;;
20713;SDS011;10518;50.742;4.226;2023-06-22T06:31:34;4.22;;;2.40;;
20713;SDS011;10518;50.742;4.226;2023-06-22T06:34:00;6.03;;;2.13;;
20713;SDS011;10518;50.742;4.226;2023-06-22T06:36:25;4.95;;;2.83;;
20713;SDS011;10518;50.742;4.226;2023-06-22T06:38:51;7.20;;;2.55;;
20713;SDS011;10518;50.742;4.226;2023-06-22T06:41:17;2.80;;;1.95;;
20713;SDS011;10518;50.742;4.226;2023-06-22T06:43:42;4.20;;;2.33;;
20713;SDS011;10518;50.742;4.226;2023-06-22T06:46:08;3.85;;;2.47;;
20713;SDS011;10518;50.742;4.226;2023-06-22T06:48:34;3.63;;;2.28;;
20713;SDS011;10518;50.742;4.226;2023-06-22T06:51:00;6.80;;;2.33;;
20713;SDS011;10518;50.742;4.226;2023-06-22T06:53:26;4.25;;;2.47;;
20713;SDS011;10518;50.742;4.226;2023-06-22T06:55:52;8.40;;;2.95;;
20713;SDS011;10518;50.742;4.226;2023-06-22T06:58:17;4.30;;;2.78;;
20713;SDS011;10518;50.742;4.226;2023-06-22T07:00:43;4.97;;;2.60;;
20713;SDS011;10518;50.742;4.226;2023-06-22T07:03:09;5.03;;;2.78;;
20713;SDS011;10518;50.742;4.226;2023-06-22T07:05:34;6.15;;;3.30;;
20713;SDS011;10518;50.742;4.226;2023-06-22T07:08:00;6.32;;;2.80;;
20713;SDS011;10518;50.742;4.226;2023-06-22T07:10:26;5.72;;;3.45;;
20713;SDS011;10518;50.742;4.226;2023-06-22T07:12:52;6.20;;;3.88;;
20713;SDS011;10518;50.742;4.226;2023-06-22T07:15:18;5.10;;;3.22;;
20713;SDS011;10518;50.742;4.226;2023-06-22T07:17:44;5.78;;;3.75;;
20713;SDS011;10518;50.742;4.226;2023-06-22T07:20:09;7.25;;;3.38;;
20713;SDS011;10518;50.742;4.226;2023-06-22T07:22:41;8.40;;;3.65;;
20713;SDS011;10518;50.742;4.226;2023-06-22T07:25:07;7.07;;;3.85;;
20713;SDS011;10518;50.742;4.226;2023-06-22T07:27:39;4.70;;;3.20;;
20713;SDS011;10518;50.742;4.226;2023-06-22T07:30:21;4.10;;;2.85;;
20713;SDS011;10518;50.742;4.226;2023-06-22T07:32:48;7.65;;;2.97;;
20713;SDS011;10518;50.742;4.226;2023-06-22T07:35:13;5.07;;;2.92;;
20713;SDS011;10518;50.742;4.226;2023-06-22T07:37:41;10.07;;;3.42;;
20713;SDS011;10518;50.742;4.226;2023-06-22T07:40:07;6.30;;;2.90;;
20713;SDS011;10518;50.742;4.226;2023-06-22T07:42:34;5.43;;;3.35;;
20713;SDS011;10518;50.742;4.226;2023-06-22T07:45:00;7.68;;;3.70;;
20713;SDS011;10518;50.742;4.226;2023-06-22T07:47:26;5.13;;;2.33;;
20713;SDS011;10518;50.742;4.226;2023-06-22T07:49:53;3.67;;;2.35;;
20713;SDS011;10518;50.742;4.226;2023-06-22T07:52:24;4.85;;;2.97;;
20713;SDS011;10518;50.742;4.226;2023-06-22T07:54:50;7.70;;;3.00;;
20713;SDS011;10518;50.742;4.226;2023-06-22T07:57:16;6.18;;;3.20;;
20713;SDS011;10518;50.742;4.226;2023-06-22T07:59:42;4.78;;;2.85;;
20713;SDS011;10518;50.742;4.226;2023-06-22T08:02:07;5.95;;;3.03;;
20713;SDS011;10518;50.742;4.226;2023-06-22T08:04:34;6.40;;;3.33;;
20713;SDS011;10518;50.742;4.226;2023-06-22T08:07:00;5.88;;;3.22;;
20713;SDS011;10518;50.742;4.226;2023-06-22T08:09:28;4.68;;;2.60;;
20713;SDS011;10518;50.742;4.226;2023-06-22T08:11:55;8.07;;;3.80;;
20713;SDS011;10518;50.742;4.226;2023-06-22T08:14:21;10.80;;;3.83;;
20713;SDS011;10518;50.742;4.226;2023-06-22T08:16:50;5.20;;;3.63;;
20713;SDS011;10518;50.742;4.226;2023-06-22T08:19:15;6.35;;;3.42;;
20713;SDS011;10518;50.742;4.226;2023-06-22T08:21:42;4.60;;;3.05;;
20713;SDS011;10518;50.742;4.226;2023-06-22T08:24:07;5.93;;;3.30;;
20713;SDS011;10518;50.742;4.226;2023-06-22T08:26:33;4.22;;;2.58;;
20713;SDS011;10518;50.742;4.226;2023-06-22T08:29:02;4.78;;;2.47;;
20713;SDS011;10518;50.742;4.226;2023-06-22T08:31:28;4.95;;;2.95;;
20713;SDS011;10518;50.742;4.226;2023-06-22T08:33:54;4.50;;;3.00;;
20713;SDS011;10518;50.742;4.226;2023-06-22T08:36:20;4.63;;;2.97;;
20713;SDS011;10518;50.742;4.226;2023-06-22T08:38:45;6.18;;;3.30;;
20713;SDS011;10518;50.742;4.226;2023-06-22T08:41:15;7.20;;;2.92;;
20713;SDS011;10518;50.742;4.226;2023-06-22T08:43:41;5.97;;;2.33;;
20713;SDS011;10518;50.742;4.226;2023-06-22T08:46:08;5.32;;;3.10;;
20713;SDS011;10518;50.742;4.226;2023-06-22T08:48:33;5.55;;;3.20;;
20713;SDS011;10518;50.742;4.226;2023-06-22T08:50:59;3.67;;;2.92;;
20713;SDS011;10518;50.742;4.226;2023-06-22T08:53:24;7.47;;;3.15;;
20713;SDS011;10518;50.742;4.226;2023-06-22T08:55:50;4.88;;;2.88;;
20713;SDS011;10518;50.742;4.226;2023-06-22T08:58:15;5.85;;;3.25;;
20713;SDS011;10518;50.742;4.226;2023-06-22T09:00:41;6.70;;;2.88;;
20713;SDS011;10518;50.742;4.226;2023-06-22T09:03:07;5.40;;;2.95;;
20713;SDS011;10518;50.742;4.226;2023-06-22T09:05:33;4.97;;;2.72;;
20713;SDS011;10518;50.742;4.226;2023-06-22T09:07:58;4.18;;;2.28;;
20713;SDS011;10518;50.742;4.226;2023-06-22T09:10:24;5.07;;;2.67;;
20713;SDS011;10518;50.742;4.226;2023-06-22T09:12:50;6.05;;;2.95;;
20713;SDS011;10518;50.742;4.226;2023-06-22T09:15:16;6.63;;;2.95;;
20713;SDS011;10518;50.742;4.226;2023-06-22T09:17:42;5.07;;;2.97;;
20713;SDS011;10518;50.742;4.226;2023-06-22T09:20:08;4.38;;;2.85;;
20713;SDS011;10518;50.742;4.226;2023-06-22T09:22:36;5.15;;;2.97;;
20713;SDS011;10518;50.742;4.226;2023-06-22T09:25:01;4.53;;;2.67;;
20713;SDS011;10518;50.742;4.226;2023-06-22T09:27:28;5.63;;;2.90;;
20713;SDS011;10518;50.742;4.226;2023-06-22T09:29:53;4.13;;;2.97;;
20713;SDS011;10518;50.742;4.226;2023-06-22T09:32:19;7.45;;;3.25;;
20713;SDS011;10518;50.742;4.226;2023-06-22T09:34:45;4.15;;;2.78;;
20713;SDS011;10518;50.742;4.226;2023-06-22T09:37:10;5.68;;;2.97;;
20713;SDS011;10518;50.742;4.226;2023-06-22T09:39:37;5.28;;;3.30;;
20713;SDS011;10518;50.742;4.226;2023-06-22T09:42:02;4.22;;;2.30;;
20713;SDS011;10518;50.742;4.226;2023-06-22T09:44:30;2.75;;;1.90;;
20713;SDS011;10518;50.742;4.226;2023-06-22T09:46:56;3.90;;;2.47;;
20713;SDS011;10518;50.742;4.226;2023-06-22T09:49:22;3.28;;;2.20;;
20713;SDS011;10518;50.742;4.226;2023-06-22T09:51:47;7.45;;;3.13;;
20713;SDS011;10518;50.742;4.226;2023-06-22T09:54:14;3.28;;;2.55;;
20713;SDS011;10518;50.742;4.226;2023-06-22T09:56:40;4.05;;;2.50;;
20713;SDS011;10518;50.742;4.226;2023-06-22T09:59:05;5.15;;;2.97;;
20713;SDS011;10518;50.742;4.226;2023-06-22T10:01:31;3.50;;;2.63;;
20713;SDS011;10518;50.742;4.226;2023-06-22T10:03:56;4.15;;;3.17;;
20713;SDS011;10518;50.742;4.226;2023-06-22T10:06:23;5.85;;;3.53;;
20713;SDS011;10518;50.742;4.226;2023-06-22T10:08:50;4.30;;;2.72;;
20713;SDS011;10518;50.742;4.226;2023-06-22T10:11:16;5.57;;;4.03;;
20713;SDS011;10518;50.742;4.226;2023-06-22T10:13:42;6.22;;;3.83;;
20713;SDS011;10518;50.742;4.226;2023-06-22T10:16:08;5.45;;;3.63;;
20713;SDS011;10518;50.742;4.226;2023-06-22T10:18:33;7.47;;;5.43;;
20713;SDS011;10518;50.742;4.226;2023-06-22T10:20:59;7.03;;;5.65;;
20713;SDS011;10518;50.742;4.226;2023-06-22T10:23:24;6.53;;;6.03;;
20713;SDS011;10518;50.742;4.226;2023-06-22T10:25:50;8.23;;;7.47;;
20713;SDS011;10518;50.742;4.226;2023-06-22T10:28:16;8.63;;;7.93;;
20713;SDS011;10518;50.742;4.226;2023-06-22T10:30:41;9.95;;;9.15;;
20713;SDS011;10518;50.742;4.226;2023-06-22T10:33:08;12.10;;;11.07;;
20713;SDS011;10518;50.742;4.226;2023-06-22T10:35:34;14.93;;;10.88;;
20713;SDS011;10518;50.742;4.226;2023-06-22T10:38:02;12.40;;;11.25;;
20713;SDS011;10518;50.742;4.226;2023-06-22T10:40:28;10.63;;;9.77;;
20713;SDS011;10518;50.742;4.226;2023-06-22T10:42:53;12.25;;;11.25;;
20713;SDS011;10518;50.742;4.226;2023-06-22T10:45:19;12.38;;;11.40;;
20713;SDS011;10518;50.742;4.226;2023-06-22T10:47:45;12.55;;;11.65;;
20713;SDS011;10518;50.742;4.226;2023-06-22T10:50:10;13.35;;;12.15;;
20713;SDS011;10518;50.742;4.226;2023-06-22T10:52:36;13.23;;;12.32;;
20713;SDS011;10518;50.742;4.226;2023-06-22T10:55:02;12.93;;;12.02;;
20713;SDS011;10518;50.742;4.226;2023-06-22T10:57:28;13.70;;;11.55;;
20713;SDS011;10518;50.742;4.226;2023-06-22T10:59:53;11.95;;;10.95;;
20713;SDS011;10518;50.742;4.226;2023-06-22T11:02:19;11.32;;;10.52;;
20713;SDS011;10518;50.742;4.226;2023-06-22T11:04:44;11.77;;;10.68;;
20713;SDS011;10518;50.742;4.226;2023-06-22T11:07:11;14.07;;;12.88;;
20713;SDS011;10518;50.742;4.226;2023-06-22T11:09:36;14.15;;;13.02;;
20713;SDS011;10518;50.742;4.226;2023-06-22T11:12:03;14.25;;;12.85;;
20713;SDS011;10518;50.742;4.226;2023-06-22T11:14:29;13.13;;;12.13;;
20713;SDS011;10518;50.742;4.226;2023-06-22T11:16:54;13.75;;;12.60;;
20713;SDS011;10518;50.742;4.226;2023-06-22T11:19:21;13.20;;;12.20;;
20713;SDS011;10518;50.742;4.226;2023-06-22T11:21:46;10.10;;;9.40;;
20713;SDS011;10518;50.742;4.226;2023-06-22T11:24:12;11.43;;;10.45;;
20713;SDS011;10518;50.742;4.226;2023-06-22T11:26:37;10.15;;;9.35;;
20713;SDS011;10518;50.742;4.226;2023-06-22T11:29:03;12.02;;;10.98;;
20713;SDS011;10518;50.742;4.226;2023-06-22T11:31:30;10.10;;;9.30;;
20713;SDS011;10518;50.742;4.226;2023-06-22T11:33:57;10.50;;;9.50;;
20713;SDS011;10518;50.742;4.226;2023-06-22T11:36:22;11.05;;;10.15;;
20713;SDS011;10518;50.742;4.226;2023-06-22T11:38:48;11.60;;;10.50;;
20713;SDS011;10518;50.742;4.226;2023-06-22T11:41:14;10.05;;;9.15;;
20713;SDS011;10518;50.742;4.226;2023-06-22T11:43:39;10.55;;;9.75;;
20713;SDS011;10518;50.742;4.226;2023-06-22T11:46:05;9.95;;;8.73;;
20713;SDS011;10518;50.742;4.226;2023-06-22T11:48:31;10.88;;;9.80;;
20713;SDS011;10518;50.742;4.226;2023-06-22T11:50:57;10.70;;;9.70;;
20713;SDS011;10518;50.742;4.226;2023-06-22T11:53:24;11.95;;;10.93;;
20713;SDS011;10518;50.742;4.226;2023-06-22T11:55:50;11.88;;;10.88;;
20713;SDS011;10518;50.742;4.226;2023-06-22T11:58:17;11.10;;;10.18;;
20713;SDS011;10518;50.742;4.226;2023-06-22T12:00:43;11.60;;;10.45;;
20713;SDS011;10518;50.742;4.226;2023-06-22T12:03:09;11.30;;;10.02;;
20713;SDS011;10518;50.742;4.226;2023-06-22T12:05:36;11.75;;;10.75;;
20713;SDS011;10518;50.742;4.226;2023-06-22T12:08:02;10.75;;;9.75;;
20713;SDS011;10518;50.742;4.226;2023-06-22T12:10:27;9.88;;;8.88;;
20713;SDS011;10518;50.742;4.226;2023-06-22T12:12:53;10.30;;;9.30;;
20713;SDS011;10518;50.742;4.226;2023-06-22T12:15:19;9.90;;;8.90;;
20713;SDS011;10518;50.742;4.226;2023-06-22T12:17:45;10.57;;;9.23;;
20713;SDS011;10518;50.742;4.226;2023-06-22T12:20:10;9.48;;;8.05;;
20713;SDS011;10518;50.742;4.226;2023-06-22T12:22:36;8.27;;;7.57;;
20713;SDS011;10518;50.742;4.226;2023-06-22T12:25:03;8.68;;;8.07;;
20713;SDS011;10518;50.742;4.226;2023-06-22T12:27:29;7.28;;;6.78;;
20713;SDS011;10518;50.742;4.226;2023-06-22T12:29:55;9.63;;;8.55;;
20713;SDS011;10518;50.742;4.226;2023-06-22T12:32:21;8.95;;;8.25;;
20713;SDS011;10518;50.742;4.226;2023-06-22T12:34:47;10.52;;;9.48;;
20713;SDS011;10518;50.742;4.226;2023-06-22T12:37:12;9.68;;;8.95;;
20713;SDS011;10518;50.742;4.226;2023-06-22T12:39:40;10.43;;;9.52;;
20713;SDS011;10518;50.742;4.226;2023-06-22T12:42:06;11.80;;;10.68;;
20713;SDS011;10518;50.742;4.226;2023-06-22T12:44:33;10.50;;;9.40;;
20713;SDS011;10518;50.742;4.226;2023-06-22T12:46:59;10.80;;;9.68;;
20713;SDS011;10518;50.742;4.226;2023-06-22T12:49:25;10.07;;;9.07;;
20713;SDS011;10518;50.742;4.226;2023-06-22T12:51:50;10.43;;;9.52;;
20713;SDS011;10518;50.742;4.226;2023-06-22T12:54:16;10.18;;;9.43;;
20713;SDS011;10518;50.742;4.226;2023-06-22T12:56:41;10.82;;;9.98;;
20713;SDS011;10518;50.742;4.226;2023-06-22T12:59:09;11.00;;;10.10;;
20713;SDS011;10518;50.742;4.226;2023-06-22T13:01:35;11.00;;;10.02;;
20713;SDS011;10518;50.742;4.226;2023-06-22T13:04:01;11.75;;;10.50;;
20713;SDS011;10518;50.742;4.226;2023-06-22T13:06:27;10.70;;;9.60;;
20713;SDS011;10518;50.742;4.226;2023-06-22T13:08:53;10.32;;;9.43;;
20713;SDS011;10518;50.742;4.226;2023-06-22T13:11:19;10.65;;;9.75;;
20713;SDS011;10518;50.742;4.226;2023-06-22T13:13:45;11.40;;;10.23;;
20713;SDS011;10518;50.742;4.226;2023-06-22T13:16:11;10.20;;;9.30;;
20713;SDS011;10518;50.742;4.226;2023-06-22T13:18:37;11.48;;;10.38;;
20713;SDS011;10518;50.742;4.226;2023-06-22T13:21:03;10.18;;;9.10;;
20713;SDS011;10518;50.742;4.226;2023-06-22T13:23:29;10.18;;;9.38;;
20713;SDS011;10518;50.742;4.226;2023-06-22T13:25:55;11.20;;;9.98;;
20713;SDS011;10518;50.742;4.226;2023-06-22T13:28:20;10.50;;;9.60;;
20713;SDS011;10518;50.742;4.226;2023-06-22T13:30:46;11.18;;;10.18;;
20713;SDS011;10518;50.742;4.226;2023-06-22T13:33:15;11.48;;;10.38;;
20713;SDS011;10518;50.742;4.226;2023-06-22T13:35:41;11.30;;;10.40;;
20713;SDS011;10518;50.742;4.226;2023-06-22T13:38:09;10.20;;;9.43;;
20713;SDS011;10518;50.742;4.226;2023-06-22T13:40:35;10.50;;;9.52;;
20713;SDS011;10518;50.742;4.226;2023-06-22T13:43:03;11.05;;;10.18;;
20713;SDS011;10518;50.742;4.226;2023-06-22T13:45:29;12.52;;;11.63;;
20713;SDS011;10518;50.742;4.226;2023-06-22T13:47:54;11.30;;;10.43;;
20713;SDS011;10518;50.742;4.226;2023-06-22T13:50:20;12.45;;;11.43;;
20713;SDS011;10518;50.742;4.226;2023-06-22T13:52:46;11.57;;;10.60;;
20713;SDS011;10518;50.742;4.226;2023-06-22T13:55:11;12.10;;;10.88;;
20713;SDS011;10518;50.742;4.226;2023-06-22T13:57:39;10.15;;;9.25;;
20713;SDS011;10518;50.742;4.226;2023-06-22T14:00:05;12.13;;;11.13;;
20713;SDS011;10518;50.742;4.226;2023-06-22T14:02:31;12.52;;;11.32;;
20713;SDS011;10518;50.742;4.226;2023-06-22T14:04:56;10.98;;;9.85;;
20713;SDS011;10518;50.742;4.226;2023-06-22T14:07:22;12.05;;;10.95;;
20713;SDS011;10518;50.742;4.226;2023-06-22T14:09:49;12.38;;;11.25;;
20713;SDS011;10518;50.742;4.226;2023-06-22T14:12:15;12.50;;;11.60;;
20713;SDS011;10518;50.742;4.226;2023-06-22T14:14:42;11.73;;;10.52;;
20713;SDS011;10518;50.742;4.226;2023-06-22T14:17:08;16.88;;;11.82;;
20713;SDS011;10518;50.742;4.226;2023-06-22T14:19:35;13.23;;;12.20;;
20713;SDS011;10518;50.742;4.226;2023-06-22T14:22:00;11.52;;;10.63;;
20713;SDS011;10518;50.742;4.226;2023-06-22T14:24:26;12.70;;;11.63;;
20713;SDS011;10518;50.742;4.226;2023-06-22T14:26:53;12.18;;;11.10;;
20713;SDS011;10518;50.742;4.226;2023-06-22T14:29:20;11.43;;;10.27;;
20713;SDS011;10518;50.742;4.226;2023-06-22T14:31:46;11.35;;;10.45;;
20713;SDS011;10518;50.742;4.226;2023-06-22T14:34:13;10.55;;;9.65;;
20713;SDS011;10518;50.742;4.226;2023-06-22T14:36:38;11.90;;;10.65;;
20713;SDS011;10518;50.742;4.226;2023-06-22T14:39:04;13.23;;;11.80;;
20713;SDS011;10518;50.742;4.226;2023-06-22T14:41:30;10.45;;;9.50;;
20713;SDS011;10518;50.742;4.226;2023-06-22T14:43:55;12.85;;;11.65;;